Rutledge, Pennsylvania
Current Conditions -  °F | °C
As of 5:26 PM on Monday 22 Dec 2014 (Local Time) from KPHL Reporting Station
Light Rain Light Rain  
Wind Chill: 35°   Ceiling: 7500
Heat Index: 42°   Visibility: 6mi
Dew Point: 36°   Wind: 13mph
Humidity: 79%   Direction: 40°NE
Pressure: 30.17"   Gusts: NA
Location:  39.9064°N, 75.3241°W
Report Text: KPHL 222226Z 04011KT 6SM -RA SCT040 BKN075 OVC110 06/02 A3017 RMK AO2 RAB05 P0000 T00560022 $
Loading
Personal Weather Stations






























Interactive Weather Map New forecast layout! Learn more

10-Day Weather Forecast

Advertisements
Track Severe Weather on mobile